Accueil
METAR-TAF:

METAR-TAF

Aéroports :

Laupheim, Allemagne

latitude: 48-13N, longitude: 009-55E, altitude: 538 m

Observation

Le bulletin a été fait il y a 1 heure et 8 minutes, à 16:20 UTC
Vent 7 kt de ouest
Température 23°C
Humidité 44%
Pression 1016 hPa
Visibilité 10 km ou plus
Nuages épars à une hauteur de 5000 ft
Nuages fragmentés à une hauteur de 7000 ft

METAR: ETHL 251620Z 27007KT 9999 SCT050 BKN070 23/10 Q1016 BLU

Heure: 19:28 (17:28 UTC)


TAF: absent

Observations et prévisions météorologiques de plus de 4000 aéroports (messages METAR et TAF).

Les stations disponibles sont représentées par des disques jaunes et rouges sur la carte.

Passer la souris dessus pour voir le nom de la station.

Cliquer dessus pour voir les observations et prévisions météorologiques.

Pour changer de carte: cliquez sur les boutons verts avec une croix noire pour zoomer, sur le bouton vert avec un tiret pour effectuer un zoom arrière, ou sur les flèches vertes pour les cartes adjacentes.


METAR-TAF: